Flight Track Log - Related Links

Times and Time Zones

All times are in EDT time to prevent confusion due to time zone crossing. See the SWA830 flight status page for this flight to view local times or setup timezone preferences in your user account.

Time Position Orientation Groundspeed Altitude Reporting Facility
EDT Latitude Longitude Course Direction KTS MPH feet Rate Location/Type
Sat 08:19:30 PM 33.0103 -97.0542 313° West 295 339 11,100  Level Fort Worth Center
Sat 08:20:30 PM 33.0503 -97.1556 295° West 301 346 14,700 3,200 Climbing Fort Worth Center
Sat 08:21:30 PM 33.0336 -97.2722 260° West 327 376 17,500 2,650 Climbing Fort Worth Center
Sat 08:22:00 PM 32.9314 -97.5053 281° West  Level FlightAware Approximate
Sat 08:22:30 PM 33.0211 -97.3911 263° West 356 410 20,000  Level Fort Worth Center
Sat 08:23:00 PM 32.9555 -97.6105 276° West  Level FlightAware Approximate
Sat 08:23:30 PM 33.0067 -97.5125 262° West 373 429 22,500  Level Fort Worth Center
Sat 08:24:30 PM 32.9917 -97.6414 262° West 380 437 24,300 1,900 Climbing Fort Worth Center
Sat 08:25:30 PM 32.9894 -97.7750 269° West 392 451 26,300 1,700 Climbing Fort Worth Center
Sat 08:26:30 PM 33.0097 -97.9039 281° West 392 451 27,700 1,400 Climbing Fort Worth Center
Sat 08:27:30 PM 33.0383 -98.0403 284° West 412 474 29,100 1,650 Climbing Fort Worth Center
Sat 08:28:30 PM 33.0647 -98.1794 283° West 425 489 31,000 1,950 Climbing Fort Worth Center
Sat 08:29:30 PM 33.0889 -98.3161 282° West 430 495 33,000 1,700 Climbing Fort Worth Center
Sat 08:30:30 PM 33.1150 -98.4528 283° West 430 495 34,400 1,250 Climbing Fort Worth Center
Sat 08:31:30 PM 33.1328 -98.5644 281° West 416 479 35,500 800 Climbing Fort Worth Center
Sat 08:32:30 PM 33.1608 -98.6989 284° West 411 473 36,000 250 Climbing Fort Worth Center
Sat 08:33:30 PM 33.1842 -98.8358 282° West 411 473 36,000  Level Fort Worth Center
Sat 08:34:30 PM 33.2097 -98.9703 283° West 411 473 36,000  Level Fort Worth Center
Sat 08:35:30 PM 33.2331 -99.1022 282° West 411 473 36,000  Level Fort Worth Center
Sat 08:36:30 PM 33.2583 -99.2369 283° West 416 479 36,000  Level Fort Worth Center
Sat 08:37:30 PM 33.2814 -99.3714 282° West 416 479 36,000  Level Fort Worth Center
Sat 08:38:30 PM 33.3064 -99.5039 283° West 410 472 36,000  Level Fort Worth Center
Sat 08:39:30 PM 33.3292 -99.6386 281° West 410 472 36,000  Level Fort Worth Center
Sat 08:40:30 PM 33.3517 -99.7758 281° West 410 472 36,000  Level Fort Worth Center
Sat 08:41:30 PM 33.3800 -99.9233 283° West 410 472 36,000  Level Fort Worth Center
Sat 08:42:30 PM 33.4025 -100.0558 282° West 410 472 36,000 -900 Level Fort Worth Center
Sat 08:43:30 PM 33.4247 -100.1886 281° West 410 472 34,200 -2,600 Descending Fort Worth Center
Sat 08:44:30 PM 33.4486 -100.3261 282° West 410 472 30,800 -3,150 Descending Fort Worth Center
Sat 08:45:30 PM 33.4706 -100.4614 281° West 416 479 27,900 -2,700 Descending Fort Worth Center
Sat 08:46:30 PM 33.4922 -100.5942 281° West 411 473 25,400 -2,700 Descending Fort Worth Center
Sat 08:47:30 PM 33.5139 -100.7194 282° West 405 466 22,500 -2,878 Descending Fort Worth Center
Sat 08:48:08 PM 33.5264 -100.8022 280° West 390 449 20,700 -2,414 Descending Fort Worth Center
Sat 08:48:57 PM 33.5422 -100.9075 280° West 402 463 19,000 -2,195 Descending Fort Worth Center
Sat 08:49:30 PM 33.5569 -100.9753 285° West 389 448 17,700 -2,452 Descending Fort Worth Center
Sat 08:50:30 PM 33.5831 -101.0911 285° West 366 421 15,200 -2,300 Descending Fort Worth Center
Sat 08:51:30 PM 33.6047 -101.2042 283° West 355 409 13,100 -2,132 Descending Fort Worth Center
Sat 08:52:31 PM 33.6283 -101.3125 285° West 345 397 10,900 -1,550 Descending Fort Worth Center
Sat 08:53:30 PM 33.6503 -101.4108 285° West 331 381 10,000 -944 Descending Fort Worth Center
Sat 08:54:00 PM 33.6572 -101.4561 280° West 268 308 9,500 -1,300 Descending Fort Worth Center
Sat 08:54:30 PM 33.6683 -101.4989 287° West 284 327 8,700 -1,300 Descending Fort Worth Center
Sat 08:55:00 PM 33.6753 -101.5442 280° West 263 303 8,200 -1,100 Descending Fort Worth Center
Sat 08:55:30 PM 33.6864 -101.5847 288° West 277 319 7,600 -1,475 Descending Fort Worth Center
Sat 08:56:01 PM 33.6933 -101.6300 280° West 270 311 6,700 -1,500 Descending Fort Worth Center
Sat 08:57:02 PM 33.7111 -101.7181 284° West 267 307 5,300 -992 Descending Fort Worth Center
Sat 08:58:02 PM 33.7253 -101.7939 283° West 207 238 4,700 -694 Descending Fort Worth Center
Sat 08:59:03 PM 33.7133 -101.8331 250° West 121 139 3,900 -568 Descending Fort Worth Center
Sat 09:00:30 PM 33.6794 -101.8489 201° Southwest 105 121 3,300 4,122 Descending Fort Worth Center
Sat 09:01:30 PM 33.6578 -101.8728 223° Southwest 105 121 14,000 5,350 Climbing Fort Worth Center
Sat 09:02:30 PM 33.6358 -101.8967 222° Southwest 105 121 14,000  Level Fort Worth Center
Sat 09:04:00 PM 33.6500 -101.8167 90° East  Level FlightAware Approximate
Sat 09:11:00 PM 33.6637 -101.8206 90° East  Level Estimated
Sat 09:12:00 PM 33.6637 -101.8206 90° East  Level Estimated
Sat 09:13:00 PM 33.6637 -101.8206 90° East  Level Estimated
Sat 09:14:00 PM 33.6637 -101.8206 90° East  Level Estimated
Sat 09:15:00 PM 33.6637 -101.8206 90° East  Level Estimated
Sat 09:16:00 PM 33.6637 -101.8206 90° East  Level Estimated
Sat 09:17:00 PM 33.6637 -101.8206 90° East  Level Estimated
Sat 09:18:00 PM 33.6637 -101.8206 90° East  Level Estimated

Login

Don't have an account? Register now (free) for customized features, flight alerts, and more!